Skip Navigation Links Skip Navigation Links

Current Weather

Boscobel, Wis.

For information only: do not use for flight planning or navigation.
Latest weather
Observation time Friday, December 3, 2021 3:40 AM CST
Local time Friday, December 3, 2021 3:54 AM CST
Flight conditions Visual Meteorological Conditions
Winds
Wind speed calm
Visibility 10 mi.
Present weather light rain
Sky condition
Ceiling 6,500 ft. overcast
Cloud layer few clouds 700 ft.
Cloud layer overcast 6,500 ft.
Temperature 38°F
Dewpoint 35°F
Altimeter 30.02 in.Hg
Precipitation
Precipitation last hour trace
Derived measurements
Relative humidity 89%
Wind chill 38°F
Density altitude -759 ft.
Remarks
Fully automated report.
Automated weather observing station with precipitation discriminator.
METAR KOVS 030940Z AUTO 00000KT 10SM -RA FEW007 OVC065 03/02 A3002 RMK AO2 P0000 T00330017

Settings

Location code

InnerDrive.Weather 4.0.6770.0 Release CLR 4.0.30319.42000
Copyright ©2018 Inner Drive Technology. All rights reserved. Portions Copyright ©1986-2018 David Braverman.

Find weather

Site navigation


Skip Navigation Links

Place info

Page info

PayPal - The safer, easier way to pay online!

Return home.

Copyright ©2021 Inner Drive Technology. Purveyors of fine, hand-crafted computer software. Page printed 2021-12-03T09:54:28 UTC.